LWM4801 KPUB-KDEN
Flight info
| Callsign | LWM4801 |
|---|---|
| Flight time | 0h 25m |
| Altitude | 19000 |
| Route | AYAYE NIIXX NIIXX4 |
| Aircraft | E145/M-SDFGIRW/S |
Departure
| Time | 2026-05-06 21:55 |
|---|---|
| Airport | Pueblo Memorial Airport (KPUB) |
Arrival
| Time | 2026-05-06 22:20 |
|---|---|
| Airport | Denver International Airport (KDEN) |
| Time | Latitude | Longitude | Altitude | Speed | Heading |
|---|---|---|---|---|---|
| 2026-05-06 21:55 | 38.23056 | -104.34963 | 12504 ft | 337 kts | 58° |
| 2026-05-06 21:55 | 38.24240 | -104.32355 | 13005 ft | 341 kts | 58° |
| 2026-05-06 21:55 | 38.25432 | -104.29729 | 13488 ft | 345 kts | 58° |
| 2026-05-06 21:56 | 38.26631 | -104.27084 | 13971 ft | 349 kts | 58° |
| 2026-05-06 21:56 | 38.27861 | -104.24367 | 14419 ft | 354 kts | 58° |
| 2026-05-06 21:56 | 38.29086 | -104.21661 | 14881 ft | 358 kts | 57° |
| 2026-05-06 21:56 | 38.30333 | -104.18906 | 15314 ft | 363 kts | 58° |
| 2026-05-06 21:57 | 38.31605 | -104.16090 | 15761 ft | 366 kts | 58° |
| 2026-05-06 21:57 | 38.32896 | -104.13230 | 16111 ft | 372 kts | 58° |
| 2026-05-06 21:57 | 38.34197 | -104.10344 | 16502 ft | 375 kts | 57° |
| 2026-05-06 21:57 | 38.35503 | -104.07449 | 16994 ft | 375 kts | 58° |
| 2026-05-06 21:58 | 38.36832 | -104.04497 | 17221 ft | 384 kts | 57° |
| 2026-05-06 21:58 | 38.38157 | -104.01549 | 17670 ft | 385 kts | 56° |
| 2026-05-06 21:58 | 38.39486 | -103.98591 | 18005 ft | 390 kts | 56° |
| 2026-05-06 21:58 | 38.40951 | -103.95699 | 18356 ft | 387 kts | 44° |
| 2026-05-06 21:59 | 38.43055 | -103.93596 | 18681 ft | 377 kts | 21° |
| 2026-05-06 21:59 | 38.45495 | -103.92535 | 19040 ft | 366 kts | 2° |
| 2026-05-06 21:59 | 38.48040 | -103.92513 | 19196 ft | 369 kts | 351° |
| 2026-05-06 21:59 | 38.50658 | -103.92577 | 19182 ft | 380 kts | 354° |
| 2026-05-06 22:00 | 38.53328 | -103.92608 | 19188 ft | 387 kts | 354° |
| 2026-05-06 22:00 | 38.56036 | -103.92632 | 19182 ft | 393 kts | 354° |
| 2026-05-06 22:00 | 38.58803 | -103.92654 | 19188 ft | 399 kts | 354° |
| 2026-05-06 22:00 | 38.61594 | -103.92678 | 19187 ft | 404 kts | 354° |
| 2026-05-06 22:01 | 38.64395 | -103.92699 | 19175 ft | 406 kts | 354° |
| 2026-05-06 22:01 | 38.67228 | -103.92721 | 19169 ft | 401 kts | 354° |
| 2026-05-06 22:01 | 38.70001 | -103.92742 | 19172 ft | 396 kts | 354° |
| 2026-05-06 22:01 | 38.72776 | -103.92765 | 19172 ft | 392 kts | 354° |
| 2026-05-06 22:02 | 38.75519 | -103.92786 | 19169 ft | 389 kts | 354° |
| 2026-05-06 22:02 | 38.78220 | -103.92808 | 19163 ft | 387 kts | 354° |
| 2026-05-06 22:02 | 38.80882 | -103.92831 | 19163 ft | 384 kts | 354° |
| 2026-05-06 22:02 | 38.83545 | -103.92856 | 19163 ft | 382 kts | 354° |
| 2026-05-06 22:03 | 38.86211 | -103.92874 | 19162 ft | 380 kts | 354° |
| 2026-05-06 22:03 | 38.88871 | -103.92894 | 19153 ft | 378 kts | 354° |
| 2026-05-06 22:03 | 38.91481 | -103.92915 | 19150 ft | 376 kts | 354° |
| 2026-05-06 22:03 | 38.94083 | -103.92936 | 19139 ft | 375 kts | 354° |
| 2026-05-06 22:04 | 38.96720 | -103.92956 | 19139 ft | 374 kts | 354° |
| 2026-05-06 22:04 | 38.99296 | -103.92978 | 19140 ft | 372 kts | 354° |
| 2026-05-06 22:04 | 39.01910 | -103.92999 | 19129 ft | 371 kts | 354° |
| 2026-05-06 22:04 | 39.04481 | -103.93020 | 19126 ft | 370 kts | 354° |
| 2026-05-06 22:05 | 39.07048 | -103.93040 | 19125 ft | 369 kts | 355° |
| 2026-05-06 22:05 | 39.09629 | -103.93066 | 19131 ft | 363 kts | 353° |
| 2026-05-06 22:05 | 39.12001 | -103.93684 | 19125 ft | 342 kts | 332° |
| 2026-05-06 22:05 | 39.13911 | -103.95373 | 19138 ft | 325 kts | 313° |
| 2026-05-06 22:06 | 39.15462 | -103.97447 | 19128 ft | 317 kts | 311° |
| 2026-05-06 22:06 | 39.16938 | -103.99512 | 19120 ft | 310 kts | 310° |
| 2026-05-06 22:06 | 39.18366 | -104.01552 | 19121 ft | 304 kts | 310° |
| 2026-05-06 22:06 | 39.19759 | -104.03563 | 19118 ft | 298 kts | 310° |
| 2026-05-06 22:07 | 39.21129 | -104.05550 | 19130 ft | 293 kts | 310° |
| 2026-05-06 22:07 | 39.22479 | -104.07513 | 19121 ft | 288 kts | 310° |
| 2026-05-06 22:07 | 39.23689 | -104.09499 | 19123 ft | 284 kts | 311° |
| 2026-05-06 22:07 | 39.25043 | -104.11366 | 19123 ft | 280 kts | 311° |
| 2026-05-06 22:08 | 39.26342 | -104.13210 | 19121 ft | 277 kts | 311° |
| 2026-05-06 22:08 | 39.27621 | -104.15045 | 19110 ft | 274 kts | 311° |
| 2026-05-06 22:08 | 39.28895 | -104.16885 | 18927 ft | 279 kts | 310° |
| 2026-05-06 22:08 | 39.30102 | -104.18849 | 18601 ft | 286 kts | 298° |
| 2026-05-06 22:09 | 39.30656 | -104.21347 | 18332 ft | 292 kts | 282° |
| 2026-05-06 22:09 | 39.31028 | -104.23935 | 18010 ft | 293 kts | 284° |
| 2026-05-06 22:09 | 39.31426 | -104.26525 | 17622 ft | 297 kts | 284° |
| 2026-05-06 22:09 | 39.31841 | -104.29195 | 16963 ft | 308 kts | 284° |
| 2026-05-06 22:10 | 39.32279 | -104.31951 | 16312 ft | 317 kts | 284° |
| 2026-05-06 22:10 | 39.32728 | -104.34775 | 15666 ft | 324 kts | 283° |
| 2026-05-06 22:10 | 39.33184 | -104.37649 | 15012 ft | 330 kts | 283° |
| 2026-05-06 22:10 | 39.33655 | -104.40627 | 14353 ft | 335 kts | 283° |
| 2026-05-06 22:11 | 39.34114 | -104.43531 | 13700 ft | 330 kts | 283° |
| 2026-05-06 22:11 | 39.34569 | -104.46421 | 13028 ft | 325 kts | 283° |
| 2026-05-06 22:11 | 39.35014 | -104.49261 | 12371 ft | 320 kts | 283° |
| 2026-05-06 22:11 | 39.35448 | -104.52032 | 11971 ft | 308 kts | 283° |
| 2026-05-06 22:12 | 39.35854 | -104.54632 | 11943 ft | 286 kts | 283° |
| 2026-05-06 22:12 | 39.36232 | -104.57057 | 11946 ft | 266 kts | 283° |
| 2026-05-06 22:12 | 39.36708 | -104.59332 | 11943 ft | 255 kts | 298° |
| 2026-05-06 22:12 | 39.37592 | -104.61265 | 11964 ft | 248 kts | 302° |
| 2026-05-06 22:13 | 39.38511 | -104.63205 | 11971 ft | 243 kts | 307° |
| 2026-05-06 22:13 | 39.39832 | -104.64602 | 11992 ft | 236 kts | 332° |
| 2026-05-06 22:13 | 39.41309 | -104.65599 | 11979 ft | 233 kts | 331° |
| 2026-05-06 22:13 | 39.42791 | -104.66442 | 11977 ft | 235 kts | 348° |
| 2026-05-06 22:14 | 39.44439 | -104.66512 | 12001 ft | 241 kts | 358° |
| 2026-05-06 22:14 | 39.46135 | -104.66495 | 11986 ft | 246 kts | 358° |
| 2026-05-06 22:14 | 39.47875 | -104.66474 | 11986 ft | 250 kts | 358° |
| 2026-05-06 22:14 | 39.49635 | -104.66454 | 11939 ft | 257 kts | 358° |
| 2026-05-06 22:15 | 39.51480 | -104.66432 | 11558 ft | 275 kts | 359° |
| 2026-05-06 22:15 | 39.53464 | -104.66409 | 11166 ft | 290 kts | 359° |
| 2026-05-06 22:15 | 39.55471 | -104.66386 | 10871 ft | 289 kts | 359° |
| 2026-05-06 22:15 | 39.57505 | -104.66372 | 10498 ft | 289 kts | 359° |
| 2026-05-06 22:16 | 39.59527 | -104.66351 | 10106 ft | 289 kts | 360° |
| 2026-05-06 22:16 | 39.61529 | -104.66328 | 9707 ft | 287 kts | 360° |
| 2026-05-06 22:16 | 39.63508 | -104.66303 | 9306 ft | 281 kts | 360° |
| 2026-05-06 22:16 | 39.65449 | -104.66277 | 8913 ft | 276 kts | 360° |
| 2026-05-06 22:17 | 39.67334 | -104.66254 | 8532 ft | 271 kts | 360° |
| 2026-05-06 22:17 | 39.69228 | -104.66230 | 8167 ft | 265 kts | 359° |
| 2026-05-06 22:17 | 39.71028 | -104.66206 | 7804 ft | 256 kts | 359° |
| 2026-05-06 22:17 | 39.72773 | -104.66185 | 7445 ft | 247 kts | 360° |
| 2026-05-06 22:18 | 39.74464 | -104.66163 | 7102 ft | 229 kts | 360° |
| 2026-05-06 22:18 | 39.75939 | -104.66144 | 6827 ft | 194 kts | 359° |
| 2026-05-06 22:18 | 39.77204 | -104.66128 | 6559 ft | 174 kts | 359° |
| 2026-05-06 22:18 | 39.78354 | -104.66113 | 6326 ft | 157 kts | 359° |
| 2026-05-06 22:19 | 39.79467 | -104.66099 | 6129 ft | 167 kts | 360° |
| 2026-05-06 22:19 | 39.80666 | -104.66084 | 5897 ft | 172 kts | 359° |
| 2026-05-06 22:19 | 39.81844 | -104.66069 | 5667 ft | 163 kts | 359° |
| 2026-05-06 22:19 | 39.82923 | -104.66054 | 5464 ft | 149 kts | 359° |
| 2026-05-06 22:20 | 39.83848 | -104.66042 | 5430 ft | 109 kts | 360° |
| 2026-05-06 22:20 | 39.84441 | -104.66039 | 5415 ft | 58 kts | 359° |
| 2026-05-06 22:20 | 39.84771 | -104.66084 | 5407 ft | 27 kts | 340° |
| 2026-05-06 22:20 | 39.84948 | -104.66189 | 5404 ft | 28 kts | 330° |
| 2026-05-06 22:21 | 39.85123 | -104.66242 | 5399 ft | 21 kts | 359° |
| 2026-05-06 22:21 | 39.85286 | -104.66245 | 5397 ft | 23 kts | 2° |
| 2026-05-06 22:21 | 39.85448 | -104.66245 | 5397 ft | 23 kts | 2° |
| 2026-05-06 22:21 | 39.85623 | -104.66235 | 5394 ft | 25 kts | 0° |
| 2026-05-06 22:22 | 39.85801 | -104.66230 | 5391 ft | 26 kts | 358° |
| 2026-05-06 22:22 | 39.85995 | -104.66253 | 5382 ft | 28 kts | 333° |
| 2026-05-06 22:22 | 39.86103 | -104.66382 | 5378 ft | 20 kts | 301° |
| 2026-05-06 22:22 | 39.86139 | -104.66557 | 5377 ft | 21 kts | 323° |
| 2026-05-06 22:23 | 39.86279 | -104.66546 | 5375 ft | 16 kts | 60° |
| 2026-05-06 22:23 | 39.86284 | -104.66475 | 5377 ft | 0 kts | 90° |